sensor_id;sensor_type;location;lat;lon;timestamp;P1;durP1;ratioP1;P2;durP2;ratioP2
56991;SDS011;42885;49.754;18.636;2023-03-01T00:01:38;109.32;;;48.92;;
56991;SDS011;42885;49.754;18.636;2023-03-01T00:04:27;100.47;;;47.65;;
56991;SDS011;42885;49.754;18.636;2023-03-01T00:07:16;107.63;;;49.75;;
56991;SDS011;42885;49.754;18.636;2023-03-01T00:10:05;112.57;;;47.83;;
56991;SDS011;42885;49.754;18.636;2023-03-01T00:12:54;108.45;;;49.95;;
56991;SDS011;42885;49.754;18.636;2023-03-01T00:15:43;107.63;;;48.78;;
56991;SDS011;42885;49.754;18.636;2023-03-01T00:18:33;116.40;;;51.53;;
56991;SDS011;42885;49.754;18.636;2023-03-01T00:21:22;124.72;;;51.55;;
56991;SDS011;42885;49.754;18.636;2023-03-01T00:24:12;121.28;;;53.65;;
56991;SDS011;42885;49.754;18.636;2023-03-01T00:27:02;124.30;;;54.10;;
56991;SDS011;42885;49.754;18.636;2023-03-01T00:29:52;135.05;;;58.05;;
56991;SDS011;42885;49.754;18.636;2023-03-01T00:32:41;134.60;;;57.00;;
56991;SDS011;42885;49.754;18.636;2023-03-01T00:35:32;118.40;;;54.73;;
56991;SDS011;42885;49.754;18.636;2023-03-01T00:38:21;128.32;;;55.23;;
56991;SDS011;42885;49.754;18.636;2023-03-01T00:41:12;123.83;;;54.97;;
56991;SDS011;42885;49.754;18.636;2023-03-01T00:44:02;137.65;;;56.23;;
56991;SDS011;42885;49.754;18.636;2023-03-01T00:46:52;141.55;;;55.85;;
56991;SDS011;42885;49.754;18.636;2023-03-01T00:49:40;136.25;;;56.08;;
56991;SDS011;42885;49.754;18.636;2023-03-01T00:52:30;131.07;;;58.83;;
56991;SDS011;42885;49.754;18.636;2023-03-01T00:55:19;131.50;;;57.27;;
56991;SDS011;42885;49.754;18.636;2023-03-01T00:58:08;138.30;;;56.60;;
56991;SDS011;42885;49.754;18.636;2023-03-01T01:00:58;130.60;;;56.65;;
56991;SDS011;42885;49.754;18.636;2023-03-01T01:03:54;122.98;;;54.75;;
56991;SDS011;42885;49.754;18.636;2023-03-01T01:06:40;123.05;;;53.35;;
56991;SDS011;42885;49.754;18.636;2023-03-01T01:09:32;123.18;;;54.15;;
56991;SDS011;42885;49.754;18.636;2023-03-01T01:12:21;125.78;;;53.00;;
56991;SDS011;42885;49.754;18.636;2023-03-01T01:15:11;118.55;;;52.17;;
56991;SDS011;42885;49.754;18.636;2023-03-01T01:18:02;115.32;;;51.98;;
56991;SDS011;42885;49.754;18.636;2023-03-01T01:20:51;120.87;;;53.75;;
56991;SDS011;42885;49.754;18.636;2023-03-01T01:23:41;121.17;;;53.58;;
56991;SDS011;42885;49.754;18.636;2023-03-01T01:26:31;127.67;;;54.08;;
56991;SDS011;42885;49.754;18.636;2023-03-01T01:29:22;121.33;;;53.40;;
56991;SDS011;42885;49.754;18.636;2023-03-01T01:32:11;128.27;;;57.10;;
56991;SDS011;42885;49.754;18.636;2023-03-01T01:35:00;131.35;;;55.20;;
56991;SDS011;42885;49.754;18.636;2023-03-01T01:37:50;132.27;;;54.50;;
56991;SDS011;42885;49.754;18.636;2023-03-01T01:40:43;125.92;;;55.52;;
56991;SDS011;42885;49.754;18.636;2023-03-01T01:43:33;138.82;;;60.10;;
56991;SDS011;42885;49.754;18.636;2023-03-01T01:46:33;145.60;;;62.78;;
56991;SDS011;42885;49.754;18.636;2023-03-01T01:49:33;138.07;;;60.63;;
56991;SDS011;42885;49.754;18.636;2023-03-01T01:52:36;136.37;;;60.98;;
56991;SDS011;42885;49.754;18.636;2023-03-01T01:58:11;131.05;;;60.00;;
56991;SDS011;42885;49.754;18.636;2023-03-01T02:01:03;128.45;;;59.27;;
56991;SDS011;42885;49.754;18.636;2023-03-01T02:03:52;126.65;;;60.03;;
56991;SDS011;42885;49.754;18.636;2023-03-01T02:06:45;134.95;;;60.75;;
56991;SDS011;42885;49.754;18.636;2023-03-01T02:09:34;136.52;;;59.65;;
56991;SDS011;42885;49.754;18.636;2023-03-01T02:12:24;133.87;;;57.95;;
56991;SDS011;42885;49.754;18.636;2023-03-01T02:15:14;121.87;;;57.05;;
56991;SDS011;42885;49.754;18.636;2023-03-01T02:18:03;130.67;;;58.15;;
56991;SDS011;42885;49.754;18.636;2023-03-01T02:21:04;124.07;;;59.75;;
56991;SDS011;42885;49.754;18.636;2023-03-01T02:23:53;128.70;;;58.73;;
56991;SDS011;42885;49.754;18.636;2023-03-01T02:26:46;132.00;;;59.18;;
56991;SDS011;42885;49.754;18.636;2023-03-01T02:29:40;128.30;;;58.60;;
56991;SDS011;42885;49.754;18.636;2023-03-01T02:32:31;132.27;;;57.45;;
56991;SDS011;42885;49.754;18.636;2023-03-01T02:35:20;122.65;;;56.02;;
56991;SDS011;42885;49.754;18.636;2023-03-01T02:38:10;135.07;;;59.70;;
56991;SDS011;42885;49.754;18.636;2023-03-01T02:40:59;132.97;;;56.90;;
56991;SDS011;42885;49.754;18.636;2023-03-01T02:43:50;131.55;;;56.02;;
56991;SDS011;42885;49.754;18.636;2023-03-01T02:46:43;128.53;;;58.17;;
56991;SDS011;42885;49.754;18.636;2023-03-01T02:49:35;126.60;;;57.98;;
56991;SDS011;42885;49.754;18.636;2023-03-01T02:55:29;131.10;;;60.08;;
56991;SDS011;42885;49.754;18.636;2023-03-01T02:58:18;126.95;;;59.08;;
56991;SDS011;42885;49.754;18.636;2023-03-01T03:01:08;126.42;;;58.78;;
56991;SDS011;42885;49.754;18.636;2023-03-01T03:03:59;128.10;;;56.50;;
56991;SDS011;42885;49.754;18.636;2023-03-01T03:06:50;127.82;;;57.17;;
56991;SDS011;42885;49.754;18.636;2023-03-01T03:09:39;120.75;;;55.12;;
56991;SDS011;42885;49.754;18.636;2023-03-01T03:12:28;129.30;;;58.05;;
56991;SDS011;42885;49.754;18.636;2023-03-01T03:15:17;122.65;;;56.45;;
56991;SDS011;42885;49.754;18.636;2023-03-01T03:18:09;121.22;;;54.88;;
56991;SDS011;42885;49.754;18.636;2023-03-01T03:21:00;118.37;;;53.80;;
56991;SDS011;42885;49.754;18.636;2023-03-01T03:23:49;124.85;;;55.80;;
56991;SDS011;42885;49.754;18.636;2023-03-01T03:26:38;119.42;;;56.30;;
56991;SDS011;42885;49.754;18.636;2023-03-01T03:29:28;126.97;;;56.47;;
56991;SDS011;42885;49.754;18.636;2023-03-01T03:32:17;118.28;;;56.00;;
56991;SDS011;42885;49.754;18.636;2023-03-01T03:35:06;127.35;;;57.38;;
56991;SDS011;42885;49.754;18.636;2023-03-01T03:37:59;132.84;;;58.14;;
56991;SDS011;42885;49.754;18.636;2023-03-01T03:41:00;124.72;;;55.70;;
56991;SDS011;42885;49.754;18.636;2023-03-01T03:43:52;132.95;;;60.17;;
56991;SDS011;42885;49.754;18.636;2023-03-01T03:46:42;121.00;;;57.53;;
56991;SDS011;42885;49.754;18.636;2023-03-01T03:49:31;126.47;;;56.58;;
56991;SDS011;42885;49.754;18.636;2023-03-01T03:52:21;122.65;;;57.38;;
56991;SDS011;42885;49.754;18.636;2023-03-01T03:55:11;121.05;;;54.40;;
56991;SDS011;42885;49.754;18.636;2023-03-01T03:58:02;126.78;;;58.60;;
56991;SDS011;42885;49.754;18.636;2023-03-01T04:00:53;124.25;;;56.98;;
56991;SDS011;42885;49.754;18.636;2023-03-01T04:03:44;123.35;;;57.23;;
56991;SDS011;42885;49.754;18.636;2023-03-01T04:06:38;132.23;;;58.07;;
56991;SDS011;42885;49.754;18.636;2023-03-01T04:09:26;127.10;;;59.13;;
56991;SDS011;42885;49.754;18.636;2023-03-01T04:12:17;124.60;;;57.45;;
56991;SDS011;42885;49.754;18.636;2023-03-01T04:15:07;128.23;;;59.08;;
56991;SDS011;42885;49.754;18.636;2023-03-01T04:18:02;122.30;;;56.92;;
56991;SDS011;42885;49.754;18.636;2023-03-01T04:20:52;126.30;;;57.93;;
56991;SDS011;42885;49.754;18.636;2023-03-01T04:23:42;113.85;;;55.55;;
56991;SDS011;42885;49.754;18.636;2023-03-01T04:26:31;115.40;;;56.25;;
56991;SDS011;42885;49.754;18.636;2023-03-01T04:29:19;112.03;;;54.18;;
56991;SDS011;42885;49.754;18.636;2023-03-01T04:32:08;124.80;;;54.97;;
56991;SDS011;42885;49.754;18.636;2023-03-01T04:34:56;116.57;;;55.35;;
56991;SDS011;42885;49.754;18.636;2023-03-01T04:37:46;116.37;;;54.83;;
56991;SDS011;42885;49.754;18.636;2023-03-01T04:40:35;111.05;;;54.60;;
56991;SDS011;42885;49.754;18.636;2023-03-01T04:43:23;118.42;;;55.60;;
56991;SDS011;42885;49.754;18.636;2023-03-01T04:46:13;122.98;;;59.67;;
56991;SDS011;42885;49.754;18.636;2023-03-01T04:49:04;125.18;;;56.98;;
56991;SDS011;42885;49.754;18.636;2023-03-01T04:51:53;116.80;;;55.67;;
56991;SDS011;42885;49.754;18.636;2023-03-01T04:54:42;115.12;;;53.40;;
56991;SDS011;42885;49.754;18.636;2023-03-01T04:57:31;112.42;;;55.33;;
56991;SDS011;42885;49.754;18.636;2023-03-01T05:00:21;114.55;;;56.20;;
56991;SDS011;42885;49.754;18.636;2023-03-01T05:03:11;121.15;;;57.13;;
56991;SDS011;42885;49.754;18.636;2023-03-01T05:06:02;121.40;;;57.73;;
56991;SDS011;42885;49.754;18.636;2023-03-01T05:08:51;122.30;;;57.25;;
56991;SDS011;42885;49.754;18.636;2023-03-01T05:11:40;126.05;;;55.65;;
56991;SDS011;42885;49.754;18.636;2023-03-01T05:14:30;125.70;;;55.75;;
56991;SDS011;42885;49.754;18.636;2023-03-01T05:17:19;128.95;;;55.98;;
56991;SDS011;42885;49.754;18.636;2023-03-01T05:20:08;128.33;;;58.43;;
56991;SDS011;42885;49.754;18.636;2023-03-01T05:22:59;134.03;;;58.75;;
56991;SDS011;42885;49.754;18.636;2023-03-01T05:25:50;139.32;;;61.23;;
56991;SDS011;42885;49.754;18.636;2023-03-01T05:28:40;141.45;;;63.95;;
56991;SDS011;42885;49.754;18.636;2023-03-01T05:31:29;136.03;;;65.10;;
56991;SDS011;42885;49.754;18.636;2023-03-01T05:34:18;138.90;;;62.20;;
56991;SDS011;42885;49.754;18.636;2023-03-01T05:37:09;132.10;;;61.60;;
56991;SDS011;42885;49.754;18.636;2023-03-01T05:39:58;139.18;;;63.48;;
56991;SDS011;42885;49.754;18.636;2023-03-01T05:42:48;130.80;;;65.03;;
56991;SDS011;42885;49.754;18.636;2023-03-01T05:45:42;132.63;;;61.70;;
56991;SDS011;42885;49.754;18.636;2023-03-01T05:48:31;137.18;;;63.17;;
56991;SDS011;42885;49.754;18.636;2023-03-01T05:51:21;138.20;;;61.55;;
56991;SDS011;42885;49.754;18.636;2023-03-01T05:54:11;127.97;;;61.15;;
56991;SDS011;42885;49.754;18.636;2023-03-01T05:57:00;132.63;;;61.10;;
56991;SDS011;42885;49.754;18.636;2023-03-01T05:59:50;141.65;;;65.17;;
56991;SDS011;42885;49.754;18.636;2023-03-01T06:02:39;139.15;;;62.78;;
56991;SDS011;42885;49.754;18.636;2023-03-01T06:05:30;153.50;;;65.97;;
56991;SDS011;42885;49.754;18.636;2023-03-01T06:08:20;144.40;;;66.97;;
56991;SDS011;42885;49.754;18.636;2023-03-01T06:11:09;147.93;;;67.07;;
56991;SDS011;42885;49.754;18.636;2023-03-01T06:13:58;152.90;;;69.55;;
56991;SDS011;42885;49.754;18.636;2023-03-01T06:16:48;155.63;;;68.95;;
56991;SDS011;42885;49.754;18.636;2023-03-01T06:19:37;141.65;;;65.85;;
56991;SDS011;42885;49.754;18.636;2023-03-01T06:22:27;125.70;;;60.28;;
56991;SDS011;42885;49.754;18.636;2023-03-01T06:25:16;130.07;;;59.60;;
56991;SDS011;42885;49.754;18.636;2023-03-01T06:28:07;124.40;;;59.67;;
56991;SDS011;42885;49.754;18.636;2023-03-01T06:30:57;115.28;;;57.83;;
56991;SDS011;42885;49.754;18.636;2023-03-01T06:33:47;120.92;;;57.30;;
56991;SDS011;42885;49.754;18.636;2023-03-01T06:36:35;118.85;;;57.65;;
56991;SDS011;42885;49.754;18.636;2023-03-01T06:39:27;123.97;;;57.78;;
56991;SDS011;42885;49.754;18.636;2023-03-01T06:42:16;118.65;;;58.50;;
56991;SDS011;42885;49.754;18.636;2023-03-01T06:45:06;120.28;;;58.00;;
56991;SDS011;42885;49.754;18.636;2023-03-01T06:48:05;161.62;;;75.15;;
56991;SDS011;42885;49.754;18.636;2023-03-01T06:50:52;180.80;;;82.02;;
56991;SDS011;42885;49.754;18.636;2023-03-01T06:53:40;161.07;;;77.75;;
56991;SDS011;42885;49.754;18.636;2023-03-01T06:56:30;137.62;;;68.85;;
56991;SDS011;42885;49.754;18.636;2023-03-01T06:59:20;137.65;;;64.05;;
56991;SDS011;42885;49.754;18.636;2023-03-01T07:02:10;118.80;;;58.13;;
56991;SDS011;42885;49.754;18.636;2023-03-01T07:04:59;104.43;;;52.27;;
56991;SDS011;42885;49.754;18.636;2023-03-01T07:07:48;101.67;;;50.75;;
56991;SDS011;42885;49.754;18.636;2023-03-01T07:10:36;113.60;;;54.90;;
56991;SDS011;42885;49.754;18.636;2023-03-01T07:13:26;108.57;;;51.73;;
56991;SDS011;42885;49.754;18.636;2023-03-01T07:16:15;102.60;;;51.75;;
56991;SDS011;42885;49.754;18.636;2023-03-01T07:19:04;111.45;;;53.65;;
56991;SDS011;42885;49.754;18.636;2023-03-01T07:21:53;111.45;;;53.40;;
56991;SDS011;42885;49.754;18.636;2023-03-01T07:24:43;105.37;;;52.03;;
56991;SDS011;42885;49.754;18.636;2023-03-01T07:27:33;94.37;;;47.20;;
56991;SDS011;42885;49.754;18.636;2023-03-01T07:30:22;96.55;;;46.30;;
56991;SDS011;42885;49.754;18.636;2023-03-01T07:33:13;90.32;;;47.15;;
56991;SDS011;42885;49.754;18.636;2023-03-01T07:36:03;100.60;;;51.92;;
56991;SDS011;42885;49.754;18.636;2023-03-01T07:38:53;97.02;;;50.65;;
56991;SDS011;42885;49.754;18.636;2023-03-01T07:41:43;97.65;;;49.90;;
56991;SDS011;42885;49.754;18.636;2023-03-01T07:44:32;99.50;;;51.40;;
56991;SDS011;42885;49.754;18.636;2023-03-01T07:47:22;97.92;;;49.83;;
56991;SDS011;42885;49.754;18.636;2023-03-01T07:50:12;98.53;;;50.93;;
56991;SDS011;42885;49.754;18.636;2023-03-01T07:53:02;110.10;;;53.63;;
56991;SDS011;42885;49.754;18.636;2023-03-01T07:56:02;93.37;;;49.38;;
56991;SDS011;42885;49.754;18.636;2023-03-01T07:58:58;99.17;;;51.20;;
56991;SDS011;42885;49.754;18.636;2023-03-01T08:01:48;99.35;;;50.75;;
56991;SDS011;42885;49.754;18.636;2023-03-01T08:04:37;92.67;;;48.98;;
56991;SDS011;42885;49.754;18.636;2023-03-01T08:07:26;101.33;;;51.30;;
56991;SDS011;42885;49.754;18.636;2023-03-01T08:10:15;88.62;;;48.35;;
56991;SDS011;42885;49.754;18.636;2023-03-01T08:13:05;88.37;;;47.63;;
56991;SDS011;42885;49.754;18.636;2023-03-01T08:15:54;99.40;;;51.25;;
56991;SDS011;42885;49.754;18.636;2023-03-01T08:18:51;94.37;;;49.58;;
56991;SDS011;42885;49.754;18.636;2023-03-01T08:21:42;104.67;;;49.63;;
56991;SDS011;42885;49.754;18.636;2023-03-01T08:24:30;96.65;;;50.30;;
56991;SDS011;42885;49.754;18.636;2023-03-01T08:27:20;94.15;;;49.42;;
56991;SDS011;42885;49.754;18.636;2023-03-01T08:30:10;91.85;;;49.83;;
56991;SDS011;42885;49.754;18.636;2023-03-01T08:32:59;94.10;;;50.28;;
56991;SDS011;42885;49.754;18.636;2023-03-01T08:35:48;95.75;;;53.35;;
56991;SDS011;42885;49.754;18.636;2023-03-01T08:38:37;102.45;;;55.30;;
56991;SDS011;42885;49.754;18.636;2023-03-01T08:41:27;98.40;;;52.23;;
56991;SDS011;42885;49.754;18.636;2023-03-01T08:44:17;100.87;;;50.87;;
56991;SDS011;42885;49.754;18.636;2023-03-01T08:47:07;98.33;;;52.13;;
56991;SDS011;42885;49.754;18.636;2023-03-01T08:49:57;95.57;;;51.33;;
56991;SDS011;42885;49.754;18.636;2023-03-01T08:52:46;93.00;;;50.78;;
56991;SDS011;42885;49.754;18.636;2023-03-01T08:55:35;88.45;;;49.27;;
56991;SDS011;42885;49.754;18.636;2023-03-01T08:58:24;97.97;;;54.23;;
56991;SDS011;42885;49.754;18.636;2023-03-01T09:01:15;100.82;;;53.10;;
56991;SDS011;42885;49.754;18.636;2023-03-01T09:04:06;100.05;;;55.43;;
56991;SDS011;42885;49.754;18.636;2023-03-01T09:06:55;111.83;;;56.48;;
56991;SDS011;42885;49.754;18.636;2023-03-01T09:09:45;106.55;;;56.60;;
56991;SDS011;42885;49.754;18.636;2023-03-01T09:12:34;110.55;;;54.98;;
56991;SDS011;42885;49.754;18.636;2023-03-01T09:15:24;103.50;;;53.50;;
56991;SDS011;42885;49.754;18.636;2023-03-01T09:18:14;88.25;;;49.70;;
56991;SDS011;42885;49.754;18.636;2023-03-01T09:21:04;77.27;;;41.73;;
56991;SDS011;42885;49.754;18.636;2023-03-01T09:23:55;61.65;;;35.78;;
56991;SDS011;42885;49.754;18.636;2023-03-01T09:26:45;62.08;;;35.63;;
56991;SDS011;42885;49.754;18.636;2023-03-01T09:29:36;60.98;;;34.38;;
56991;SDS011;42885;49.754;18.636;2023-03-01T09:32:25;67.25;;;37.67;;
56991;SDS011;42885;49.754;18.636;2023-03-01T09:35:15;69.27;;;38.88;;
56991;SDS011;42885;49.754;18.636;2023-03-01T09:38:05;74.12;;;41.00;;
56991;SDS011;42885;49.754;18.636;2023-03-01T09:40:54;67.53;;;40.17;;
56991;SDS011;42885;49.754;18.636;2023-03-01T09:43:48;70.08;;;42.17;;
56991;SDS011;42885;49.754;18.636;2023-03-01T09:46:43;70.70;;;41.77;;
56991;SDS011;42885;49.754;18.636;2023-03-01T09:49:34;77.78;;;44.93;;
56991;SDS011;42885;49.754;18.636;2023-03-01T09:52:39;80.90;;;46.63;;
56991;SDS011;42885;49.754;18.636;2023-03-01T09:55:34;73.90;;;43.60;;
56991;SDS011;42885;49.754;18.636;2023-03-01T09:58:37;72.47;;;44.03;;
56991;SDS011;42885;49.754;18.636;2023-03-01T10:01:59;68.37;;;41.73;;
56991;SDS011;42885;49.754;18.636;2023-03-01T10:05:22;78.87;;;42.33;;
56991;SDS011;42885;49.754;18.636;2023-03-01T10:08:30;76.12;;;41.00;;
56991;SDS011;42885;49.754;18.636;2023-03-01T10:11:30;67.40;;;40.40;;
56991;SDS011;42885;49.754;18.636;2023-03-01T10:17:30;70.30;;;42.80;;
56991;SDS011;42885;49.754;18.636;2023-03-01T10:20:46;75.50;;;46.70;;
56991;SDS011;42885;49.754;18.636;2023-03-01T10:23:38;83.27;;;45.20;;
56991;SDS011;42885;49.754;18.636;2023-03-01T10:26:42;74.93;;;42.50;;
56991;SDS011;42885;49.754;18.636;2023-03-01T10:29:31;72.30;;;42.47;;
56991;SDS011;42885;49.754;18.636;2023-03-01T10:32:24;70.97;;;42.53;;
56991;SDS011;42885;49.754;18.636;2023-03-01T10:35:21;69.30;;;42.13;;
56991;SDS011;42885;49.754;18.636;2023-03-01T10:38:12;60.37;;;37.10;;
56991;SDS011;42885;49.754;18.636;2023-03-01T10:41:06;54.93;;;33.75;;
56991;SDS011;42885;49.754;18.636;2023-03-01T10:43:56;48.92;;;32.45;;
56991;SDS011;42885;49.754;18.636;2023-03-01T10:46:47;44.88;;;28.55;;
56991;SDS011;42885;49.754;18.636;2023-03-01T10:49:38;42.48;;;25.08;;
56991;SDS011;42885;49.754;18.636;2023-03-01T10:52:31;42.27;;;25.12;;
56991;SDS011;42885;49.754;18.636;2023-03-01T10:55:26;39.98;;;24.80;;
56991;SDS011;42885;49.754;18.636;2023-03-01T10:58:21;44.27;;;27.10;;
56991;SDS011;42885;49.754;18.636;2023-03-01T11:04:19;42.43;;;26.40;;
56991;SDS011;42885;49.754;18.636;2023-03-01T11:07:08;42.88;;;26.90;;
56991;SDS011;42885;49.754;18.636;2023-03-01T11:09:58;41.88;;;26.15;;
56991;SDS011;42885;49.754;18.636;2023-03-01T11:12:47;42.45;;;25.95;;
56991;SDS011;42885;49.754;18.636;2023-03-01T11:15:38;34.98;;;23.20;;
56991;SDS011;42885;49.754;18.636;2023-03-01T11:18:28;33.50;;;22.48;;
56991;SDS011;42885;49.754;18.636;2023-03-01T11:21:18;30.10;;;21.77;;
56991;SDS011;42885;49.754;18.636;2023-03-01T11:24:14;32.48;;;22.45;;
56991;SDS011;42885;49.754;18.636;2023-03-01T11:27:01;33.02;;;21.95;;
56991;SDS011;42885;49.754;18.636;2023-03-01T11:29:57;35.30;;;24.00;;
56991;SDS011;42885;49.754;18.636;2023-03-01T11:32:57;34.80;;;22.60;;
56991;SDS011;42885;49.754;18.636;2023-03-01T11:35:56;30.32;;;21.68;;
56991;SDS011;42885;49.754;18.636;2023-03-01T11:38:47;33.27;;;22.33;;
56991;SDS011;42885;49.754;18.636;2023-03-01T11:41:38;30.92;;;21.80;;
56991;SDS011;42885;49.754;18.636;2023-03-01T11:44:29;31.95;;;22.22;;
56991;SDS011;42885;49.754;18.636;2023-03-01T11:47:27;30.68;;;22.60;;
56991;SDS011;42885;49.754;18.636;2023-03-01T11:51:07;29.65;;;23.77;;
56991;SDS011;42885;49.754;18.636;2023-03-01T11:53:40;33.40;;;25.02;;
56991;SDS011;42885;49.754;18.636;2023-03-01T11:56:46;35.23;;;25.02;;
56991;SDS011;42885;49.754;18.636;2023-03-01T12:18:13;30.97;;;24.47;;
56991;SDS011;42885;49.754;18.636;2023-03-01T12:37:39;27.65;;;21.52;;
56991;SDS011;42885;49.754;18.636;2023-03-01T12:40:19;28.73;;;22.93;;
56991;SDS011;42885;49.754;18.636;2023-03-01T12:43:33;31.60;;;22.55;;
56991;SDS011;42885;49.754;18.636;2023-03-01T12:46:33;28.93;;;22.60;;
56991;SDS011;42885;49.754;18.636;2023-03-01T12:52:39;27.98;;;19.95;;
56991;SDS011;42885;49.754;18.636;2023-03-01T12:55:29;25.08;;;20.52;;
56991;SDS011;42885;49.754;18.636;2023-03-01T13:13:38;29.52;;;21.10;;
56991;SDS011;42885;49.754;18.636;2023-03-01T13:19:23;26.77;;;19.30;;
56991;SDS011;42885;49.754;18.636;2023-03-01T13:22:27;24.73;;;19.73;;
56991;SDS011;42885;49.754;18.636;2023-03-01T13:25:21;28.60;;;18.90;;
56991;SDS011;42885;49.754;18.636;2023-03-01T13:37:31;28.95;;;19.67;;
56991;SDS011;42885;49.754;18.636;2023-03-01T13:43:31;25.37;;;18.80;;
56991;SDS011;42885;49.754;18.636;2023-03-01T13:46:22;22.80;;;17.42;;
56991;SDS011;42885;49.754;18.636;2023-03-01T13:49:18;24.02;;;17.52;;
56991;SDS011;42885;49.754;18.636;2023-03-01T13:52:03;23.45;;;17.57;;
56991;SDS011;42885;49.754;18.636;2023-03-01T13:54:55;21.07;;;17.23;;
56991;SDS011;42885;49.754;18.636;2023-03-01T13:57:51;24.65;;;17.17;;
56991;SDS011;42885;49.754;18.636;2023-03-01T14:00:40;24.12;;;17.85;;
56991;SDS011;42885;49.754;18.636;2023-03-01T14:03:29;23.38;;;16.82;;
56991;SDS011;42885;49.754;18.636;2023-03-01T14:06:25;22.22;;;16.57;;
56991;SDS011;42885;49.754;18.636;2023-03-01T14:09:24;20.97;;;15.80;;
56991;SDS011;42885;49.754;18.636;2023-03-01T14:15:35;22.87;;;16.27;;
56991;SDS011;42885;49.754;18.636;2023-03-01T14:18:40;22.52;;;16.15;;
56991;SDS011;42885;49.754;18.636;2023-03-01T14:24:21;21.20;;;14.93;;
56991;SDS011;42885;49.754;18.636;2023-03-01T14:27:11;23.75;;;16.52;;
56991;SDS011;42885;49.754;18.636;2023-03-01T14:30:03;27.15;;;17.37;;
56991;SDS011;42885;49.754;18.636;2023-03-01T14:32:54;27.35;;;17.98;;
56991;SDS011;42885;49.754;18.636;2023-03-01T14:35:52;26.05;;;18.45;;
56991;SDS011;42885;49.754;18.636;2023-03-01T14:38:45;25.85;;;17.77;;
56991;SDS011;42885;49.754;18.636;2023-03-01T14:41:34;30.55;;;18.62;;
56991;SDS011;42885;49.754;18.636;2023-03-01T14:44:24;27.30;;;17.98;;
56991;SDS011;42885;49.754;18.636;2023-03-01T14:47:49;28.20;;;17.50;;
56991;SDS011;42885;49.754;18.636;2023-03-01T14:50:30;26.87;;;17.80;;
56991;SDS011;42885;49.754;18.636;2023-03-01T14:53:27;26.93;;;16.95;;
56991;SDS011;42885;49.754;18.636;2023-03-01T14:56:18;29.25;;;18.17;;
56991;SDS011;42885;49.754;18.636;2023-03-01T14:59:07;33.17;;;18.33;;
56991;SDS011;42885;49.754;18.636;2023-03-01T15:01:58;31.50;;;17.95;;
56991;SDS011;42885;49.754;18.636;2023-03-01T15:04:52;44.65;;;28.45;;
56991;SDS011;42885;49.754;18.636;2023-03-01T15:07:47;31.15;;;17.95;;
56991;SDS011;42885;49.754;18.636;2023-03-01T15:10:37;31.10;;;18.00;;
56991;SDS011;42885;49.754;18.636;2023-03-01T15:13:34;24.92;;;16.48;;
56991;SDS011;42885;49.754;18.636;2023-03-01T15:16:29;29.82;;;18.02;;
56991;SDS011;42885;49.754;18.636;2023-03-01T15:19:21;27.32;;;18.52;;
56991;SDS011;42885;49.754;18.636;2023-03-01T15:22:14;29.82;;;18.40;;
56991;SDS011;42885;49.754;18.636;2023-03-01T15:25:05;30.40;;;18.52;;
56991;SDS011;42885;49.754;18.636;2023-03-01T15:27:55;32.13;;;17.60;;
56991;SDS011;42885;49.754;18.636;2023-03-01T15:30:51;29.42;;;17.80;;
56991;SDS011;42885;49.754;18.636;2023-03-01T15:33:41;28.50;;;17.70;;
56991;SDS011;42885;49.754;18.636;2023-03-01T15:36:43;31.00;;;18.67;;
56991;SDS011;42885;49.754;18.636;2023-03-01T15:39:43;32.93;;;18.17;;
56991;SDS011;42885;49.754;18.636;2023-03-01T15:42:36;28.87;;;17.92;;
56991;SDS011;42885;49.754;18.636;2023-03-01T15:45:26;28.60;;;18.23;;
56991;SDS011;42885;49.754;18.636;2023-03-01T15:48:18;31.62;;;18.77;;
56991;SDS011;42885;49.754;18.636;2023-03-01T15:51:09;33.58;;;20.60;;
56991;SDS011;42885;49.754;18.636;2023-03-01T15:54:23;32.85;;;20.27;;
56991;SDS011;42885;49.754;18.636;2023-03-01T15:57:00;36.15;;;21.12;;
56991;SDS011;42885;49.754;18.636;2023-03-01T15:59:50;35.17;;;21.57;;
56991;SDS011;42885;49.754;18.636;2023-03-01T16:02:39;34.38;;;21.75;;
56991;SDS011;42885;49.754;18.636;2023-03-01T16:05:30;39.53;;;24.25;;
56991;SDS011;42885;49.754;18.636;2023-03-01T16:08:21;50.35;;;24.07;;
56991;SDS011;42885;49.754;18.636;2023-03-01T16:11:15;41.23;;;24.00;;
56991;SDS011;42885;49.754;18.636;2023-03-01T16:14:07;41.80;;;24.77;;
56991;SDS011;42885;49.754;18.636;2023-03-01T16:16:58;40.42;;;24.54;;
56991;SDS011;42885;49.754;18.636;2023-03-01T16:19:47;45.58;;;27.37;;
56991;SDS011;42885;49.754;18.636;2023-03-01T16:22:36;130.30;;;75.57;;
56991;SDS011;42885;49.754;18.636;2023-03-01T16:25:26;44.42;;;27.25;;
56991;SDS011;42885;49.754;18.636;2023-03-01T16:28:14;50.63;;;26.63;;
56991;SDS011;42885;49.754;18.636;2023-03-01T16:31:04;45.70;;;27.07;;
56991;SDS011;42885;49.754;18.636;2023-03-01T16:33:54;48.00;;;28.43;;
56991;SDS011;42885;49.754;18.636;2023-03-01T16:36:43;49.38;;;27.50;;
56991;SDS011;42885;49.754;18.636;2023-03-01T16:39:33;52.27;;;28.40;;
56991;SDS011;42885;49.754;18.636;2023-03-01T16:42:23;44.85;;;26.40;;
56991;SDS011;42885;49.754;18.636;2023-03-01T16:45:13;47.50;;;26.68;;
56991;SDS011;42885;49.754;18.636;2023-03-01T16:48:05;46.95;;;26.82;;
56991;SDS011;42885;49.754;18.636;2023-03-01T16:50:56;50.52;;;27.62;;
56991;SDS011;42885;49.754;18.636;2023-03-01T16:53:47;52.40;;;29.65;;
56991;SDS011;42885;49.754;18.636;2023-03-01T16:56:40;51.18;;;28.10;;
56991;SDS011;42885;49.754;18.636;2023-03-01T16:59:30;53.08;;;29.75;;
56991;SDS011;42885;49.754;18.636;2023-03-01T17:02:19;46.90;;;28.07;;
56991;SDS011;42885;49.754;18.636;2023-03-01T17:05:08;48.47;;;28.07;;
56991;SDS011;42885;49.754;18.636;2023-03-01T17:07:59;54.77;;;29.82;;
56991;SDS011;42885;49.754;18.636;2023-03-01T17:10:48;50.05;;;29.00;;
56991;SDS011;42885;49.754;18.636;2023-03-01T17:13:38;54.03;;;29.12;;
56991;SDS011;42885;49.754;18.636;2023-03-01T17:16:29;49.08;;;27.20;;
56991;SDS011;42885;49.754;18.636;2023-03-01T17:19:18;48.05;;;28.87;;
56991;SDS011;42885;49.754;18.636;2023-03-01T17:22:08;55.98;;;29.35;;
56991;SDS011;42885;49.754;18.636;2023-03-01T17:25:00;51.28;;;28.75;;
56991;SDS011;42885;49.754;18.636;2023-03-01T17:27:50;77.22;;;37.63;;
56991;SDS011;42885;49.754;18.636;2023-03-01T17:30:43;65.22;;;35.23;;
56991;SDS011;42885;49.754;18.636;2023-03-01T17:33:34;71.50;;;36.60;;
56991;SDS011;42885;49.754;18.636;2023-03-01T17:36:23;71.55;;;41.55;;
56991;SDS011;42885;49.754;18.636;2023-03-01T17:39:13;72.90;;;41.98;;
56991;SDS011;42885;49.754;18.636;2023-03-01T17:42:03;87.37;;;44.18;;
56991;SDS011;42885;49.754;18.636;2023-03-01T17:44:53;97.78;;;45.78;;
56991;SDS011;42885;49.754;18.636;2023-03-01T17:47:43;88.92;;;46.95;;
56991;SDS011;42885;49.754;18.636;2023-03-01T17:50:32;82.22;;;45.90;;